MET'MAP v2.0
soon released !

Expected late october,
this new version will be
more efficient, smarter,
and hosted on a brand new
server x3 powerfull...
...and still free !


Not compatible ?
Try the mobile version !

LOG IN : | Subscribe | Disclaimer | Who is Orbifly ? |
ICAO code :

TAF - LETO Madrid Torrejon - 25 Sep 2020 09:33 UTC
Data Sources :     NOAA   


- Airport Elevation : 2026 ft
- IATA code : TOJ
- No reported NOTAMs.


LETO - Madrid Torrejon

Latest METAR recorded : 2015/08/11 08:00 LETO 110800Z 22001KT CAVOK 27/15 Q1015 NOSIG
TAF TAF LETO
Valid from the 25 at 06:00 until the 26 at 06:00 UTC


250500Z 2506/2606 31010KT CAVOK TX20/2516Z TN09/2606Z
TEMPO 2506/2508 VRB05KT
PROB40
TEMPO 2506/2517 31015G25KT
BECMG 2519/2521 VRB05KT

Source NOAA


MET'MAP, your aeronautical weather chart ! - Copyright ORBIFLY December 2007

Programming & Development : Alexandra Zaïnal
Co-Developer : Marc-Olivier Méhu
Technical & hardware support : Manuel Goepfert
Concept & Financing : Baudouin d'Aumeries